createdAt,value
2022-08-18T00:00:57.473Z,18.43
2022-08-18T00:04:17.673Z,18.27
2022-08-18T00:07:32.825Z,18.70
2022-08-18T00:10:44.402Z,18.43
2022-08-18T00:13:50.319Z,18.27
2022-08-18T00:16:58.013Z,18.40
2022-08-18T00:20:07.094Z,18.97
2022-08-18T00:23:14.279Z,18.80
2022-08-18T00:26:23.107Z,19.13
2022-08-18T00:29:29.934Z,18.07
2022-08-18T00:32:38.417Z,20.30
2022-08-18T00:35:45.238Z,19.37
2022-08-18T00:38:51.522Z,19.93
2022-08-18T00:42:03.098Z,19.40
2022-08-18T00:45:10.518Z,18.97
2022-08-18T00:48:18.815Z,20.67
2022-08-18T00:51:29.058Z,20.53
2022-08-18T00:54:40.470Z,19.73
2022-08-18T00:57:52.120Z,20.13
2022-08-18T01:00:59.100Z,21.17
2022-08-18T01:04:12.990Z,20.67
2022-08-18T01:07:23.560Z,20.97
2022-08-18T01:10:29.519Z,19.87
2022-08-18T01:13:41.835Z,20.60
2022-08-18T01:17:04.306Z,21.17
2022-08-18T01:20:29.739Z,22.23
2022-08-18T01:23:42.903Z,22.50
2022-08-18T01:26:50.561Z,22.40
2022-08-18T01:29:57.772Z,22.37
2022-08-18T01:33:10.843Z,23.30
2022-08-18T01:36:18.718Z,22.53
2022-08-18T01:41:17.375Z,23.40
2022-08-18T01:42:57.101Z,23.93
2022-08-18T01:46:04.456Z,24.63
2022-08-18T01:49:13.600Z,25.30
2022-08-18T01:52:22.567Z,25.60
2022-08-18T01:55:32.321Z,24.90
2022-08-18T01:58:40.042Z,24.97
2022-08-18T02:01:53.003Z,23.60
2022-08-18T02:05:08.625Z,23.17
2022-08-18T02:08:15.766Z,23.10
2022-08-18T02:11:24.859Z,23.53
2022-08-18T02:14:31.808Z,24.17
2022-08-18T02:17:41.358Z,26.00
2022-08-18T02:20:48.421Z,26.20
2022-08-18T02:23:54.607Z,26.80
2022-08-18T02:27:06.169Z,25.10
2022-08-18T02:30:15.256Z,27.17
2022-08-18T02:33:22.211Z,26.23
2022-08-18T02:36:28.619Z,23.47
2022-08-18T02:39:38.246Z,24.53
2022-08-18T02:42:47.449Z,25.17
2022-08-18T02:45:54.376Z,24.93
2022-08-18T02:49:00.591Z,23.57
2022-08-18T02:52:10.064Z,24.63
2022-08-18T02:55:16.993Z,23.77
2022-08-18T02:58:30.443Z,23.40
2022-08-18T03:01:41.765Z,23.43
2022-08-18T03:04:48.906Z,24.63
2022-08-18T03:07:55.550Z,24.83
2022-08-18T03:11:04.155Z,24.48
2022-08-18T03:14:13.404Z,24.53
2022-08-18T03:17:20.513Z,23.70
2022-08-18T03:20:30.100Z,22.03
2022-08-18T03:23:40.420Z,24.40
2022-08-18T03:26:48.614Z,22.77
2022-08-18T03:29:59.009Z,22.70
2022-08-18T03:33:06.529Z,24.00
2022-08-18T03:36:17.588Z,23.07
2022-08-18T03:39:25.563Z,23.73
2022-08-18T03:42:33.666Z,23.20
2022-08-18T03:45:42.857Z,23.47
2022-08-18T03:48:50.319Z,23.53
2022-08-18T03:51:56.436Z,24.33
2022-08-18T03:55:03.843Z,24.77
2022-08-18T03:58:14.562Z,26.57
2022-08-18T04:01:29.627Z,28.10
2022-08-18T04:04:35.807Z,27.63
2022-08-18T04:07:44.648Z,29.77
2022-08-18T04:10:50.689Z,29.03
2022-08-18T04:13:59.123Z,28.77
2022-08-18T04:17:12.653Z,28.23
2022-08-18T04:20:19.995Z,33.27
2022-08-18T04:23:26.277Z,41.20
2022-08-18T04:26:33.318Z,55.70
2022-08-18T04:29:39.540Z,68.00
2022-08-18T04:32:49.391Z,72.13
2022-08-18T04:35:55.803Z,63.13
2022-08-18T04:39:03.742Z,52.13
2022-08-18T04:42:10.585Z,48.13
2022-08-18T04:45:17.436Z,42.70
2022-08-18T04:48:27.232Z,33.83
2022-08-18T04:52:33.975Z,29.03
2022-08-18T04:54:57.398Z,27.13
2022-08-18T04:58:04.328Z,25.80
2022-08-18T05:01:10.593Z,24.20
2022-08-18T05:04:21.086Z,25.50
2022-08-18T05:07:27.138Z,24.10
2022-08-18T05:10:34.954Z,23.47
2022-08-18T05:13:40.859Z,21.70
2022-08-18T05:16:49.710Z,22.37
2022-08-18T05:19:59.050Z,21.77
2022-08-18T05:23:07.194Z,21.92
2022-08-18T05:26:14.150Z,22.08
2022-08-18T05:29:21.482Z,21.25
2022-08-18T05:32:48.235Z,21.98
2022-08-18T05:36:07.654Z,22.60
2022-08-18T05:39:21.518Z,21.93
2022-08-18T05:42:30.988Z,22.05
2022-08-18T05:45:38.281Z,21.13
2022-08-18T05:48:45.330Z,21.35
2022-08-18T05:51:57.645Z,20.52
2022-08-18T05:55:24.649Z,20.33
2022-08-18T05:58:36.127Z,19.83
2022-08-18T06:01:46.692Z,18.88
2022-08-18T06:04:59.158Z,19.77
2022-08-18T06:08:13.656Z,21.00
2022-08-18T06:11:22.382Z,18.35
2022-08-18T06:14:29.969Z,17.42
2022-08-18T06:18:03.314Z,18.90
2022-08-18T06:21:20.306Z,19.80
2022-08-18T06:24:37.888Z,17.58
2022-08-18T06:27:56.028Z,16.75
2022-08-18T06:31:08.520Z,17.63
2022-08-18T06:34:25.350Z,15.55
2022-08-18T06:37:56.613Z,14.55
2022-08-18T06:41:37.926Z,14.88
2022-08-18T06:44:46.278Z,14.82
2022-08-18T06:47:59.771Z,13.98
2022-08-18T06:51:10.807Z,12.98
2022-08-18T06:54:31.102Z,13.30
2022-08-18T06:57:43.255Z,13.35
2022-08-18T07:00:59.923Z,13.88
2022-08-18T07:04:07.665Z,12.95
2022-08-18T07:07:20.739Z,12.68
2022-08-18T07:10:37.204Z,12.63
2022-08-18T07:13:58.626Z,15.80
2022-08-18T07:17:16.922Z,13.95
2022-08-18T07:20:26.063Z,13.00
2022-08-18T07:23:38.551Z,13.43
2022-08-18T07:27:10.595Z,12.70
2022-08-18T07:30:33.405Z,12.88
2022-08-18T07:33:40.674Z,13.10
2022-08-18T07:36:52.577Z,13.40
2022-08-18T07:40:07.034Z,12.13
2022-08-18T07:43:20.831Z,11.73
2022-08-18T07:46:39.667Z,11.95
2022-08-18T07:50:16.481Z,11.88
2022-08-18T07:53:20.592Z,11.65
2022-08-18T07:56:40.199Z,11.05
2022-08-18T07:59:55.918Z,11.35
2022-08-18T08:03:22.516Z,10.73
2022-08-18T08:06:35.887Z,11.10
2022-08-18T08:09:54.819Z,10.65
2022-08-18T08:13:19.350Z,10.13
2022-08-18T08:16:44.672Z,10.48
2022-08-18T08:20:15.264Z,9.27
2022-08-18T08:23:32.215Z,9.18
2022-08-18T08:26:54.087Z,9.60
2022-08-18T08:30:07.177Z,9.02
2022-08-18T08:33:20.919Z,8.75
2022-08-18T08:36:34.307Z,8.35
2022-08-18T08:39:48.249Z,8.15
2022-08-18T08:43:03.357Z,8.35
2022-08-18T08:46:15.971Z,8.07
2022-08-18T08:49:41.136Z,7.93
2022-08-18T08:52:58.585Z,8.25
2022-08-18T08:56:10.087Z,8.13
2022-08-18T08:59:19.956Z,8.10
2022-08-18T09:02:55.636Z,8.95
2022-08-18T09:06:24.603Z,8.07
2022-08-18T09:09:59.426Z,7.93
2022-08-18T09:13:31.736Z,7.22
2022-08-18T09:16:50.999Z,8.35
2022-08-18T09:20:14.686Z,7.90
2022-08-18T09:23:23.933Z,7.80
2022-08-18T09:26:45.832Z,8.40
2022-08-18T09:29:57.011Z,8.15
2022-08-18T09:33:21.653Z,7.80
2022-08-18T09:36:41.918Z,8.18
2022-08-18T09:40:18.359Z,8.02
2022-08-18T09:43:37.443Z,8.30
2022-08-18T09:47:03.350Z,7.82
2022-08-18T09:50:48.814Z,8.30
2022-08-18T09:54:12.232Z,8.25
2022-08-18T09:57:24.736Z,9.40
2022-08-18T10:00:34.947Z,8.43
2022-08-18T10:03:40.964Z,7.82
2022-08-18T10:10:59.397Z,8.30
2022-08-18T10:14:07.906Z,7.60
2022-08-18T10:17:38.116Z,8.00
2022-08-18T10:21:03.792Z,7.70
2022-08-18T10:24:36.139Z,8.60
2022-08-18T10:27:54.388Z,7.88
2022-08-18T10:31:10.452Z,8.07
2022-08-18T10:34:51.589Z,8.07
2022-08-18T10:38:00.351Z,8.88
2022-08-18T10:41:15.913Z,8.07
2022-08-18T10:44:30.891Z,8.43
2022-08-18T10:47:38.024Z,8.20
2022-08-18T10:50:55.784Z,8.57
2022-08-18T10:54:07.681Z,8.27
2022-08-18T10:57:21.797Z,8.63
2022-08-18T11:00:40.033Z,8.65
2022-08-18T11:07:44.935Z,8.55
2022-08-18T11:11:32.575Z,7.93
2022-08-18T11:14:41.498Z,8.05
2022-08-18T11:18:04.452Z,9.13
2022-08-18T11:21:41.669Z,8.75
2022-08-18T11:24:52.995Z,8.63
2022-08-18T11:28:00.837Z,8.60
2022-08-18T11:31:08.319Z,8.10
2022-08-18T11:34:18.513Z,8.32
2022-08-18T11:44:44.192Z,8.27
2022-08-18T11:48:13.658Z,8.50
2022-08-18T11:51:27.071Z,7.93
2022-08-18T11:54:50.859Z,8.40
2022-08-18T11:58:12.582Z,7.93
2022-08-18T12:01:40.900Z,8.05
2022-08-18T12:05:10.419Z,8.30
2022-08-18T12:08:54.523Z,8.20
2022-08-18T12:11:57.023Z,8.18
2022-08-18T12:15:43.652Z,8.07
2022-08-18T12:18:52.937Z,9.00
2022-08-18T12:22:11.635Z,7.15
2022-08-18T12:25:25.198Z,8.80
2022-08-18T12:28:32.714Z,7.88
2022-08-18T12:31:47.754Z,7.63
2022-08-18T12:34:55.490Z,7.38
2022-08-18T12:38:03.611Z,7.88
2022-08-18T12:41:23.854Z,6.95
2022-08-18T12:44:30.078Z,7.53
2022-08-18T12:47:43.017Z,7.72
2022-08-18T12:50:54.410Z,7.35
2022-08-18T12:54:03.612Z,7.10
2022-08-18T12:57:33.349Z,7.38
2022-08-18T13:00:49.728Z,6.70
2022-08-18T13:04:11.530Z,7.13
2022-08-18T13:07:20.684Z,7.38
2022-08-18T13:10:44.809Z,6.95
2022-08-18T13:13:56.290Z,7.15
2022-08-18T13:17:03.607Z,8.02
2022-08-18T13:20:21.217Z,7.43
2022-08-18T13:23:27.608Z,7.35
2022-08-18T13:26:36.540Z,7.47
2022-08-18T13:29:43.105Z,7.50
2022-08-18T13:33:00.475Z,7.65
2022-08-18T13:36:15.223Z,7.25
2022-08-18T13:39:24.191Z,7.20
2022-08-18T13:42:50.357Z,7.72
2022-08-18T13:45:58.435Z,7.53
2022-08-18T13:49:06.377Z,6.85
2022-08-18T13:52:33.396Z,7.32
2022-08-18T13:55:41.430Z,6.57
2022-08-18T13:58:53.420Z,6.70
2022-08-18T14:01:59.723Z,7.35
2022-08-18T14:05:09.599Z,7.22
2022-08-18T14:08:20.388Z,7.55
2022-08-18T14:11:32.993Z,7.00
2022-08-18T14:14:39.447Z,6.93
2022-08-18T14:17:46.532Z,6.60
2022-08-18T14:21:09.971Z,6.80
2022-08-18T14:24:38.478Z,7.30
2022-08-18T14:27:44.582Z,6.88
2022-08-18T14:31:07.068Z,6.78
2022-08-18T14:34:13.782Z,7.05
2022-08-18T14:37:28.682Z,7.00
2022-08-18T14:40:41.686Z,7.68
2022-08-18T14:44:12.199Z,7.13
2022-08-18T14:47:24.539Z,7.60
2022-08-18T14:50:31.621Z,7.03
2022-08-18T14:53:38.178Z,7.18
2022-08-18T14:56:50.597Z,7.25
2022-08-18T14:59:57.380Z,7.03
2022-08-18T15:03:06.478Z,6.90
2022-08-18T15:06:17.113Z,6.95
2022-08-18T15:09:30.357Z,6.82
2022-08-18T15:12:39.928Z,6.10
2022-08-18T15:15:51.911Z,6.35
2022-08-18T15:18:58.169Z,7.07
2022-08-18T15:22:20.770Z,5.80
2022-08-18T15:25:42.202Z,6.43
2022-08-18T15:28:51.704Z,6.75
2022-08-18T15:32:05.181Z,7.25
2022-08-18T15:35:15.920Z,6.35
2022-08-18T15:38:25.743Z,6.38
2022-08-18T15:41:43.913Z,6.03
2022-08-18T15:44:54.273Z,6.50
2022-08-18T15:48:01.336Z,6.65
2022-08-18T15:51:11.849Z,8.05
2022-08-18T15:54:19.752Z,8.13
2022-08-18T15:57:39.560Z,6.50
2022-08-18T16:00:52.589Z,6.10
2022-08-18T16:04:00.026Z,6.35
2022-08-18T16:07:09.810Z,6.10
2022-08-18T16:10:16.179Z,5.82
2022-08-18T16:13:24.749Z,5.78
2022-08-18T16:16:35.976Z,6.35
2022-08-18T16:19:43.390Z,5.50
2022-08-18T16:22:51.386Z,5.68
2022-08-18T16:26:04.551Z,5.45
2022-08-18T16:29:10.641Z,5.40
2022-08-18T16:32:20.174Z,5.50
2022-08-18T16:35:27.531Z,5.35
2022-08-18T16:38:34.308Z,5.80
2022-08-18T16:41:40.748Z,5.75
2022-08-18T16:44:48.315Z,6.45
2022-08-18T16:47:57.522Z,6.00
2022-08-18T16:51:04.538Z,5.75
2022-08-18T16:54:13.188Z,6.07
2022-08-18T16:57:53.405Z,5.95
2022-08-18T17:01:18.979Z,6.10
2022-08-18T17:04:33.790Z,5.85
2022-08-18T17:07:40.257Z,6.05
2022-08-18T17:10:47.818Z,6.57
2022-08-18T17:13:54.816Z,5.70
2022-08-18T17:17:03.597Z,6.55
2022-08-18T17:20:15.867Z,5.95
2022-08-18T17:23:24.527Z,6.50
2022-08-18T17:26:41.199Z,6.05
2022-08-18T17:29:53.308Z,6.75
2022-08-18T17:33:03.342Z,6.25
2022-08-18T17:36:22.530Z,6.68
2022-08-18T17:39:34.439Z,6.85
2022-08-18T17:42:41.241Z,6.90
2022-08-18T17:45:49.902Z,6.60
2022-08-18T17:49:01.085Z,6.80
2022-08-18T17:52:08.245Z,6.55
2022-08-18T17:55:20.638Z,6.65
2022-08-18T17:58:34.518Z,8.07
2022-08-18T18:01:43.484Z,6.43
2022-08-18T18:04:53.229Z,7.43
2022-08-18T18:08:04.156Z,8.02
2022-08-18T18:11:14.615Z,7.05
2022-08-18T18:14:30.619Z,7.70
2022-08-18T18:17:40.352Z,8.07
2022-08-18T18:20:47.073Z,7.00
2022-08-18T18:24:14.428Z,8.75
2022-08-18T18:27:36.027Z,7.47
2022-08-18T18:30:43.267Z,7.45
2022-08-18T18:33:59.614Z,8.13
2022-08-18T18:37:06.210Z,7.60
2022-08-18T18:40:26.755Z,7.50
2022-08-18T18:43:42.153Z,7.82
2022-08-18T18:47:01.180Z,8.02
2022-08-18T18:50:12.879Z,8.55
2022-08-18T18:53:31.517Z,8.68
2022-08-18T18:56:49.253Z,7.90
2022-08-18T19:00:10.665Z,7.80
2022-08-18T19:03:21.388Z,7.90
2022-08-18T19:06:35.822Z,8.82
2022-08-18T19:09:50.443Z,8.57
2022-08-18T19:13:06.377Z,7.82
2022-08-18T19:16:24.162Z,7.72
2022-08-18T19:19:39.219Z,8.55
2022-08-18T19:22:54.700Z,7.32
2022-08-18T19:26:08.352Z,8.02
2022-08-18T19:29:23.888Z,8.32
2022-08-18T19:32:38.249Z,7.82
2022-08-18T19:35:58.819Z,8.05
2022-08-18T19:39:16.399Z,7.88
2022-08-18T19:42:35.340Z,8.10
2022-08-18T19:45:51.691Z,7.72
2022-08-18T19:49:04.658Z,8.25
2022-08-18T19:52:46.426Z,7.32
2022-08-18T19:56:14.507Z,7.68
2022-08-18T19:59:41.401Z,8.18
2022-08-18T20:03:31.994Z,7.72
2022-08-18T20:07:04.095Z,7.30
2022-08-18T20:10:37.795Z,7.57
2022-08-18T20:13:49.409Z,6.45
2022-08-18T20:17:18.676Z,7.40
2022-08-18T20:20:26.477Z,6.70
2022-08-18T20:23:38.038Z,7.15
2022-08-18T20:26:49.323Z,6.75
2022-08-18T20:30:32.143Z,7.03
2022-08-18T20:33:43.928Z,7.25
2022-08-18T20:36:52.027Z,7.50
2022-08-18T20:40:03.360Z,8.00
2022-08-18T20:43:26.059Z,6.95
2022-08-18T20:46:43.305Z,7.55
2022-08-18T20:50:03.730Z,7.15
2022-08-18T20:53:17.517Z,7.40
2022-08-18T20:56:44.024Z,7.65
2022-08-18T20:59:57.186Z,7.00
2022-08-18T21:03:10.430Z,7.18
2022-08-18T21:06:18.594Z,7.28
2022-08-18T21:09:24.507Z,6.60
2022-08-18T21:12:36.588Z,7.57
2022-08-18T21:15:42.535Z,8.18
2022-08-18T21:18:54.041Z,7.07
2022-08-18T21:22:03.596Z,7.10
2022-08-18T21:25:15.914Z,7.15
2022-08-18T21:28:26.077Z,7.68
2022-08-18T21:31:42.966Z,7.50
2022-08-18T21:34:54.005Z,6.97
2022-08-18T21:38:03.322Z,7.30
2022-08-18T21:41:09.782Z,8.02
2022-08-18T21:44:24.780Z,7.68
2022-08-18T21:47:34.195Z,7.53
2022-08-18T21:50:42.309Z,7.18
2022-08-18T21:53:49.304Z,7.03
2022-08-18T21:57:21.136Z,7.80
2022-08-18T22:00:32.669Z,7.72
2022-08-18T22:03:51.188Z,7.38
2022-08-18T22:06:59.649Z,8.50
2022-08-18T22:10:25.479Z,7.50
2022-08-18T22:13:47.768Z,7.13
2022-08-18T22:17:28.064Z,7.70
2022-08-18T22:20:46.140Z,8.10
2022-08-18T22:24:23.090Z,7.95
2022-08-18T22:27:30.114Z,7.72
2022-08-18T22:30:37.216Z,8.73
2022-08-18T22:33:46.654Z,8.23
2022-08-18T22:37:00.099Z,7.88
2022-08-18T22:40:11.980Z,7.55
2022-08-18T22:43:19.565Z,8.05
2022-08-18T22:46:28.894Z,7.65
2022-08-18T22:49:39.037Z,8.00
2022-08-18T22:52:48.528Z,7.47
2022-08-18T22:55:57.886Z,8.57
2022-08-18T22:59:13.758Z,8.48
2022-08-18T23:02:23.309Z,8.55
2022-08-18T23:05:32.523Z,8.70
2022-08-18T23:08:55.740Z,8.63
2022-08-18T23:12:06.125Z,8.60
2022-08-18T23:15:14.119Z,8.95
2022-08-18T23:18:22.319Z,8.85
2022-08-18T23:21:34.843Z,8.52
2022-08-18T23:24:42.755Z,9.40
2022-08-18T23:27:49.697Z,9.80
2022-08-18T23:30:57.891Z,9.35
2022-08-18T23:34:06.410Z,9.40
2022-08-18T23:37:15.137Z,9.45
2022-08-18T23:40:22.198Z,9.43
2022-08-18T23:43:28.209Z,9.82
2022-08-18T23:46:35.448Z,9.90
2022-08-18T23:49:41.602Z,9.68
2022-08-18T23:52:53.273Z,9.82
2022-08-18T23:55:59.335Z,9.27
2022-08-18T23:59:10.561Z,9.27
